CDT,Max TemperatureF,Mean TemperatureF,Min TemperatureF,Max Dew PointF,MeanDew PointF,Min DewpointF,Max Humidity, Mean Humidity, Min Humidity, Max Sea Level PressureIn, Mean Sea Level PressureIn, Min Sea Level PressureIn, Max VisibilityMiles, Mean VisibilityMiles, Min VisibilityMiles, Max Wind SpeedMPH, Mean Wind SpeedMPH, Max Gust SpeedMPH,PrecipitationIn, CloudCover, Events, WindDirDegrees
2013-10-1,83,64,45,57,49,41,89,60,30,29.83,29.78,29.71,10,10,10,15,6,20,0.00,0,,114
2013-10-2,91,72,53,61,55,34,93,55,16,29.81,29.73,29.62,10,10,9,22,8,26,0.00,0,,172
2013-10-3,91,71,50,61,40,28,78,44,10,29.68,29.60,29.50,10,10,10,28,13,36,0.00,0,,197
2013-10-4,78,62,46,48,36,28,55,39,22,30.06,29.73,29.54,10,10,10,25,17,32,0.00,0,,305
2013-10-5,66,55,43,27,22,18,53,35,17,30.18,30.12,30.04,10,10,10,26,14,33,0.00,2,,328
2013-10-6,75,56,36,36,27,20,54,35,16,30.18,30.13,30.05,10,10,10,24,11,30,0.00,0,,306
2013-10-7,83,62,41,38,33,25,70,41,12,30.17,30.06,29.94,10,10,10,20,8,26,0.00,0,,202
2013-10-8,86,69,51,36,30,22,48,29,10,29.92,29.80,29.70,10,10,10,32,18,41,0.00,0,,181
2013-10-9,85,69,53,44,38,33,50,35,20,29.81,29.76,29.71,10,10,10,26,15,36,0.00,0,,174
2013-10-10,85,69,52,59,51,45,86,58,29,29.82,29.69,29.50,10,9,2,36,15,47,0.51,2,Rain-Thunderstorm,188
2013-10-11,77,61,44,46,36,28,70,44,18,29.90,29.72,29.64,10,10,10,23,10,29,0.00,0,,197
2013-10-12,66,54,42,43,39,35,89,62,34,30.18,30.09,29.92,10,10,10,18,8,23,0.00,0,,49
2013-10-13,70,55,40,58,49,37,93,73,52,30.26,30.16,30.06,10,10,6,17,6,29,0.15,4,Rain-Thunderstorm,144
2013-10-14,82,65,47,61,53,30,93,55,16,30.13,29.91,29.64,10,10,8,32,17,40,T,5,Rain,181
2013-10-15,60,50,39,36,31,29,73,52,31,30.20,30.13,30.01,10,10,10,23,12,31,0.00,1,,360
2013-10-16,55,47,38,39,36,31,92,72,51,30.21,30.11,30.00,10,10,10,15,7,21,0.02,5,Rain,238
2013-10-17,68,52,35,37,30,25,85,53,20,30.06,29.99,29.91,10,10,10,15,7,28,0.00,0,,54
2013-10-18,49,40,30,36,33,27,92,73,54,30.24,30.09,29.92,10,10,5,22,12,32,0.01,6,Rain-Snow,27
2013-10-19,68,50,32,32,27,21,82,50,17,30.22,30.06,29.91,10,10,10,20,11,24,0.00,0,,229
2013-10-20,69,51,32,38,32,26,75,51,26,29.99,29.85,29.77,10,10,10,25,10,33,0.00,0,,353
2013-10-21,64,53,42,41,34,27,82,54,25,30.17,30.08,30.00,10,10,10,20,8,24,T,2,Rain,337
2013-10-22,75,60,44,33,32,29,60,40,19,30.14,30.07,30.01,10,10,9,20,8,25,0.00,0,,284
2013-10-23,78,59,39,35,33,30,70,45,19,30.09,30.03,29.97,10,10,9,16,7,21,0.00,0,,312
2013-10-24,59,49,38,36,34,33,85,63,40,30.33,30.24,30.07,10,10,10,20,8,28,0.00,0,,94
2013-10-25,66,50,33,45,36,30,89,65,40,30.35,30.22,30.06,10,10,10,25,13,31,T,1,,186
2013-10-26,64,50,36,46,36,25,83,53,23,30.22,30.12,30.00,10,10,9,29,13,37,0.00,1,,328
2013-10-27,78,56,33,35,29,26,75,46,16,30.17,29.96,29.81,10,10,10,24,12,32,0.00,0,,209
2013-10-28,80,62,44,59,44,30,73,51,28,29.93,29.81,29.72,10,10,10,23,13,33,0.01,2,Rain-Thunderstorm,195
2013-10-29,59,51,42,51,41,35,89,71,53,30.02,29.92,29.83,10,9,5,18,7,22,0.00,4,,11
2013-10-30,76,62,47,50,45,25,100,58,16,29.90,29.80,29.62,10,5,0,29,8,38,T,5,Fog,355
2013-10-31,63,51,39,48,38,26,93,59,25,29.83,29.74,29.61,10,10,5,24,10,31,0.30,4,Rain,325